Time;durP1;ratioP1;P1;durP2;ratioP2;P2;SDS_P1;SDS_P2;PMS_P1;PMS_P2;Temp;Humidity;BMP_temperature;BMP_pressure;BME280_temperature;BME280_humidity;BME280_pressure;Samples;Min_cycle;Max_cycle;Signal;HPM_P1;HPM_P2
2021/05/27 00:00:34;;;;;;;8.77;5.20;;;;;;;12.51;65.59;101174.66;5093402;28;20082;-47
2021/05/27 00:03:03;;;;;;;8.95;5.82;;;;;;;12.49;65.50;101176.97;5081680;28;20041;-46
2021/05/27 00:05:30;;;;;;;8.15;5.38;;;;;;;12.46;65.65;101178.47;5085176;28;20044;-48
2021/05/27 00:07:58;;;;;;;10.45;5.40;;;;;;;12.40;65.93;101173.50;5092264;28;20059;-49
2021/05/27 00:10:28;;;;;;;9.15;5.35;;;;;;;12.37;65.98;101177.78;5091830;28;20062;-46
2021/05/27 00:12:55;;;;;;;7.50;5.00;;;;;;;12.34;66.18;101181.22;5094259;28;20404;-47
2021/05/27 00:15:25;;;;;;;6.70;4.93;;;;;;;12.29;66.35;101181.47;5086919;28;20385;-49
2021/05/27 00:17:52;;;;;;;10.88;5.88;;;;;;;12.28;66.26;101179.88;5077019;28;20083;-47
2021/05/27 00:20:20;;;;;;;8.77;4.50;;;;;;;12.27;66.35;101183.78;5073614;28;20036;-47
2021/05/27 00:22:46;;;;;;;8.90;4.40;;;;;;;12.30;66.10;101174.78;5081782;28;20131;-48
2021/05/27 00:25:14;;;;;;;9.77;4.32;;;;;;;12.26;66.27;101178.59;5059655;28;20128;-46
2021/05/27 00:27:48;;;;;;;8.30;4.22;;;;;;;12.26;65.92;101179.38;5090103;28;20052;-48
2021/05/27 00:30:17;;;;;;;8.65;3.97;;;;;;;12.34;65.96;101191.56;5084436;28;20052;-49
2021/05/27 00:32:43;;;;;;;8.07;4.00;;;;;;;12.31;65.95;101176.38;5086325;28;20121;-46
2021/05/27 00:35:11;;;;;;;7.75;3.83;;;;;;;12.27;66.06;101192.13;5091714;28;20076;-47
2021/05/27 00:37:39;;;;;;;6.35;3.60;;;;;;;12.23;66.11;101193.97;5091861;28;20473;-47
2021/05/27 00:40:09;;;;;;;8.75;5.30;;;;;;;12.19;66.19;101196.63;5084482;28;20481;-47
2021/05/27 00:42:36;;;;;;;6.30;4.63;;;;;;;12.17;66.16;101184.25;5092300;28;20036;-46
2021/05/27 00:45:04;;;;;;;7.07;4.65;;;;;;;12.17;66.25;101187.03;5072817;28;20454;-46
2021/05/27 00:47:31;;;;;;;9.23;4.47;;;;;;;12.25;66.04;101179.72;5089068;28;20388;-47
2021/05/27 00:49:58;;;;;;;9.48;3.70;;;;;;;12.29;65.93;101192.56;5088618;28;20055;-45
2021/05/27 00:52:25;;;;;;;9.27;4.95;;;;;;;12.29;65.79;101192.56;5063279;28;20400;-46
2021/05/27 00:54:53;;;;;;;9.10;4.20;;;;;;;12.23;65.89;101202.31;5089928;28;20060;-46
2021/05/27 00:57:31;;;;;;;5.80;3.97;;;;;;;12.26;65.89;101207.13;5086508;28;20047;-50
2021/05/27 00:59:59;;;;;;;5.65;4.10;;;;;;;12.38;65.17;101203.56;5091275;28;20067;-46
2021/05/27 01:02:27;;;;;;;6.07;3.72;;;;;;;12.39;65.01;101206.00;5079734;28;20040;-50
2021/05/27 01:04:54;;;;;;;8.05;3.60;;;;;;;12.37;65.22;101213.88;5078070;28;20133;-47
2021/05/27 01:07:23;;;;;;;5.03;3.15;;;;;;;12.29;65.34;101212.00;5105463;28;20052;-46
2021/05/27 01:09:50;;;;;;;7.65;3.95;;;;;;;12.27;65.44;101211.53;5090330;28;20051;-46
2021/05/27 01:12:17;;;;;;;6.03;3.15;;;;;;;12.21;65.52;101215.69;5087627;28;20588;-49
2021/05/27 01:17:31;;;;;;;5.90;3.55;;;;;;;12.24;65.09;101215.00;5099337;28;20067;-47
2021/05/27 01:19:58;;;;;;;4.25;2.55;;;;;;;12.21;64.94;101205.41;5085372;28;20104;-49
2021/05/27 01:22:25;;;;;;;4.07;2.50;;;;;;;12.23;64.84;101210.63;5077455;28;20140;-46
2021/05/27 01:24:52;;;;;;;6.25;2.65;;;;;;;12.21;64.78;101210.13;5083816;28;20082;-46
2021/05/27 01:27:18;;;;;;;13.57;2.95;;;;;;;12.14;64.90;101210.72;5100823;28;20079;-50
2021/05/27 01:29:52;;;;;;;2.80;1.80;;;;;;;12.14;64.85;101204.34;5088122;28;20072;-46
2021/05/27 01:32:19;;;;;;;5.18;2.47;;;;;;;12.16;64.48;101202.03;5079055;28;20508;-48
2021/05/27 01:34:46;;;;;;;3.35;1.73;;;;;;;12.15;64.45;101194.88;5083793;28;20093;-46
2021/05/27 01:37:14;;;;;;;4.47;2.00;;;;;;;12.08;64.55;101192.66;5089683;28;20064;-46
2021/05/27 01:39:48;;;;;;;2.55;1.85;;;;;;;12.06;64.63;101192.22;5079871;28;20052;-46
2021/05/27 01:42:15;;;;;;;3.05;1.90;;;;;;;12.05;64.42;101192.53;5092164;28;20047;-46
2021/05/27 01:44:42;;;;;;;3.03;2.08;;;;;;;12.00;64.54;101203.84;5089537;28;20501;-48
2021/05/27 01:47:09;;;;;;;2.40;1.80;;;;;;;11.99;64.45;101199.47;5079892;28;20139;-48
2021/05/27 01:49:41;;;;;;;1.92;1.83;;;;;;;11.93;64.59;101201.66;5077000;28;20040;-46
2021/05/27 01:52:09;;;;;;;2.63;1.80;;;;;;;11.91;64.67;101200.38;5078963;28;20061;-46
2021/05/27 01:54:38;;;;;;;4.13;1.83;;;;;;;11.81;64.85;101198.06;5076884;28;20576;-45
2021/05/27 01:57:06;;;;;;;2.92;2.63;;;;;;;11.85;64.75;101208.13;5091797;28;20056;-47
2021/05/27 01:59:32;;;;;;;4.72;2.28;;;;;;;11.88;64.52;101207.44;5080416;28;20056;-47
2021/05/27 02:02:00;;;;;;;2.88;2.38;;;;;;;11.91;63.90;101206.75;5091800;28;20079;-46
2021/05/27 02:04:26;;;;;;;3.72;2.13;;;;;;;11.91;64.18;101206.75;5088183;28;20528;-47
2021/05/27 02:06:53;;;;;;;2.03;1.80;;;;;;;11.88;64.20;101201.06;5090319;28;20102;-47
2021/05/27 02:09:20;;;;;;;3.63;1.63;;;;;;;11.84;64.26;101205.66;5058612;28;20749;-46
2021/05/27 02:11:49;;;;;;;4.00;1.83;;;;;;;11.81;64.26;101206.38;5091456;28;20384;-46
2021/05/27 02:14:19;;;;;;;2.30;1.67;;;;;;;11.81;64.29;101200.81;5077474;28;20072;-46
2021/05/27 02:16:47;;;;;;;3.25;1.58;;;;;;;11.78;64.20;101201.50;5089949;28;20036;-46
2021/05/27 02:19:13;;;;;;;2.53;1.83;;;;;;;11.65;64.65;101203.38;5086598;28;20119;-46
2021/05/27 02:21:41;;;;;;;3.55;1.70;;;;;;;11.57;64.90;101196.75;5071901;28;20519;-47
2021/05/27 02:24:08;;;;;;;1.95;1.60;;;;;;;11.53;64.98;101200.56;5090490;28;20122;-47
2021/05/27 02:26:35;;;;;;;2.63;1.50;;;;;;;11.57;64.70;101196.75;5088917;28;20085;-46
2021/05/27 02:29:03;;;;;;;2.33;2.13;;;;;;;11.57;64.80;101196.75;5090195;28;20068;-47
2021/05/27 02:31:30;;;;;;;4.10;2.63;;;;;;;11.56;64.67;101194.34;5082159;28;20052;-46
2021/05/27 02:33:56;;;;;;;3.20;2.00;;;;;;;11.53;64.64;101197.78;5089898;28;20458;-46
2021/05/27 02:36:24;;;;;;;4.00;2.20;;;;;;;11.44;64.50;101202.59;5088572;28;20076;-48
2021/05/27 02:38:52;;;;;;;1.98;1.48;;;;;;;11.36;64.95;101195.97;5086589;28;20059;-46
2021/05/27 02:41:20;;;;;;;4.03;1.30;;;;;;;11.26;65.27;101199.16;5091433;28;20147;-45
2021/05/27 02:43:47;;;;;;;2.08;1.30;;;;;;;11.17;65.48;101198.44;5087663;28;20076;-46
2021/05/27 02:46:15;;;;;;;1.55;1.30;;;;;;;11.15;65.65;101200.72;5097443;28;20043;-46
2021/05/27 02:48:50;;;;;;;3.58;1.45;;;;;;;11.07;65.66;101198.81;5083180;28;20044;-46
2021/05/27 02:51:17;;;;;;;3.63;1.25;;;;;;;11.03;65.81;101197.91;5077301;28;20165;-45
2021/05/27 02:53:46;;;;;;;3.25;1.35;;;;;;;10.93;65.95;101203.84;5089541;28;20159;-46
2021/05/27 02:56:13;;;;;;;2.22;1.50;;;;;;;10.89;65.86;101209.22;5089133;28;20040;-45
2021/05/27 02:58:42;;;;;;;2.03;1.63;;;;;;;10.86;65.88;101198.00;5090302;28;20048;-46
2021/05/27 03:01:10;;;;;;;3.97;1.30;;;;;;;10.85;65.70;101196.41;5087496;28;20134;-46
2021/05/27 03:03:37;;;;;;;2.35;1.23;;;;;;;10.91;65.12;101195.03;5079950;28;20047;-48
2021/05/27 03:06:04;;;;;;;4.25;1.60;;;;;;;10.93;65.06;101198.28;5082737;28;20079;-48
2021/05/27 03:08:31;;;;;;;1.70;1.20;;;;;;;10.88;65.26;101195.72;5090933;28;20076;-46
2021/05/27 03:10:58;;;;;;;2.95;1.30;;;;;;;10.92;64.86;101200.25;5089322;28;20055;-45
2021/05/27 03:13:25;;;;;;;2.75;1.50;;;;;;;10.88;64.81;101196.50;5090211;28;20044;-46
2021/05/27 03:15:52;;;;;;;2.33;1.10;;;;;;;10.85;64.77;101199.16;5078276;28;20040;-46
2021/05/27 03:18:19;;;;;;;1.70;0.88;;;;;;;10.85;64.76;101201.94;5084738;28;20029;-46
2021/05/27 03:20:46;;;;;;;2.42;1.20;;;;;;;10.81;64.55;101210.09;5074625;28;20098;-46
2021/05/27 03:23:14;;;;;;;3.15;1.00;;;;;;;10.77;64.69;101202.81;5081510;28;20076;-47
2021/05/27 03:25:41;;;;;;;1.52;0.95;;;;;;;10.76;64.32;101198.41;5089172;28;20071;-47
2021/05/27 03:28:09;;;;;;;2.30;0.80;;;;;;;10.76;64.25;101198.41;5088373;28;20083;-48
2021/05/27 03:30:37;;;;;;;1.77;1.08;;;;;;;10.80;63.96;101199.38;5092342;28;20048;-47
2021/05/27 03:33:04;;;;;;;2.08;0.95;;;;;;;10.75;63.99;101194.81;5084239;28;20131;-54
2021/05/27 03:35:31;;;;;;;2.90;1.25;;;;;;;10.80;63.50;101199.38;5087513;28;20040;-46
2021/05/27 03:37:59;;;;;;;1.90;0.73;;;;;;;10.76;63.49;101195.63;5068063;28;20440;-47
2021/05/27 03:40:26;;;;;;;2.58;1.08;;;;;;;10.76;63.39;101198.41;5087841;28;20056;-47
2021/05/27 03:42:57;;;;;;;3.17;1.10;;;;;;;10.68;63.42;101196.47;5081519;28;20048;-46
2021/05/27 03:45:34;;;;;;;1.08;0.98;;;;;;;10.67;63.18;101203.97;5081861;28;20052;-46
2021/05/27 03:48:02;;;;;;;1.60;1.13;;;;;;;10.60;63.54;101202.88;5081703;28;20089;-46
2021/05/27 03:50:31;;;;;;;1.00;0.90;;;;;;;10.55;63.54;101208.63;5061967;28;20063;-46
2021/05/27 03:53:00;;;;;;;2.65;0.90;;;;;;;10.52;63.61;101201.78;5094065;28;20040;-47
2021/05/27 03:55:27;;;;;;;1.05;0.80;;;;;;;10.49;63.51;101202.44;5085668;28;20064;-47
2021/05/27 03:57:56;;;;;;;1.35;0.90;;;;;;;10.47;63.61;101203.94;5094254;28;20044;-46
2021/05/27 04:03:10;;;;;;;3.67;1.17;;;;;;;10.42;63.47;101204.13;5086572;28;20042;-48
2021/05/27 04:08:23;;;;;;;1.05;0.70;;;;;;;10.43;63.16;101195.50;5087419;28;20123;-46
2021/05/27 04:10:50;;;;;;;2.85;0.90;;;;;;;10.44;62.75;101193.53;5093851;28;20465;-47
2021/05/27 04:13:17;;;;;;;0.75;0.70;;;;;;;10.46;62.55;101203.13;5091934;28;20124;-47
2021/05/27 04:15:44;;;;;;;2.28;0.82;;;;;;;10.51;62.28;101207.66;5088404;28;20071;-45
2021/05/27 04:18:17;;;;;;;1.05;0.95;;;;;;;10.53;61.73;101197.06;5077009;28;20496;-46
2021/05/27 04:20:46;;;;;;;0.90;0.65;;;;;;;10.51;61.74;101202.13;5079830;28;20158;-46
2021/05/27 04:23:33;;;;;;;0.82;0.60;;;;;;;10.52;61.56;101200.97;5086377;28;20142;-47
2021/05/27 04:26:01;;;;;;;2.45;0.70;;;;;;;10.49;61.79;101207.16;5090043;28;20044;-47
2021/05/27 04:28:28;;;;;;;1.85;0.63;;;;;;;10.54;61.57;101204.25;5098465;28;20412;-49
2021/05/27 04:31:10;;;;;;;0.70;0.70;;;;;;;10.53;61.66;101206.19;5089806;28;20123;-46
2021/05/27 04:33:38;;;;;;;0.93;0.73;;;;;;;10.55;61.47;101203.91;5079299;28;20082;-46
2021/05/27 04:36:08;;;;;;;1.20;0.63;;;;;;;10.55;61.75;101203.06;5084194;28;20086;-49
2021/05/27 04:38:35;;;;;;;3.47;0.77;;;;;;;10.51;61.81;101199.38;5092522;28;20040;-46
2021/05/27 04:41:03;;;;;;;2.25;1.00;;;;;;;10.51;61.68;101205.69;5091711;28;20374;-47
2021/05/27 04:43:29;;;;;;;1.02;0.80;;;;;;;10.51;61.81;101207.66;5088929;28;20473;-46
2021/05/27 04:45:57;;;;;;;2.15;0.68;;;;;;;10.47;61.99;101210.28;5095127;28;20123;-46
2021/05/27 04:48:24;;;;;;;5.30;1.00;;;;;;;10.45;61.95;101215.34;5098112;28;20055;-45
2021/05/27 04:50:51;;;;;;;3.08;0.50;;;;;;;10.41;62.16;101214.38;5092915;28;20135;-45
2021/05/27 04:53:18;;;;;;;3.03;0.90;;;;;;;10.42;62.55;101217.97;5087036;28;20139;-46
2021/05/27 04:55:45;;;;;;;0.68;0.68;;;;;;;10.44;62.48;101213.72;5089067;28;20516;-46
2021/05/27 04:58:13;;;;;;;1.38;0.88;;;;;;;10.57;62.00;101225.69;5085181;28;20135;-47
2021/05/27 05:00:40;;;;;;;2.85;0.82;;;;;;;10.65;61.88;101235.91;5072667;28;20127;-46
2021/05/27 05:03:07;;;;;;;1.65;0.70;;;;;;;10.64;61.82;101229.59;5082952;28;20042;-46
2021/05/27 05:05:35;;;;;;;1.45;0.73;;;;;;;10.62;62.01;101222.72;5083028;28;20588;-47
2021/05/27 05:08:05;;;;;;;7.07;0.97;;;;;;;10.59;62.14;101228.97;5092403;28;20370;-46
2021/05/27 05:10:33;;;;;;;3.65;1.48;;;;;;;10.61;62.18;101224.72;5088415;28;20078;-48
2021/05/27 05:13:00;;;;;;;3.60;0.65;;;;;;;10.65;62.09;101235.91;5078615;28;20047;-47
2021/05/27 05:15:29;;;;;;;4.32;1.77;;;;;;;10.68;62.31;101235.25;5091311;28;20131;-46
2021/05/27 05:18:02;;;;;;;1.63;0.90;;;;;;;10.65;62.81;101230.38;5092101;28;20050;-48
2021/05/27 05:20:34;;;;;;;2.60;1.45;;;;;;;10.64;63.02;101231.53;5076213;28;20768;-45
2021/05/27 05:23:02;;;;;;;1.20;0.70;;;;;;;10.64;63.04;101237.91;5092933;28;20135;-47
2021/05/27 05:25:31;;;;;;;3.13;1.42;;;;;;;10.64;62.81;101235.13;5089646;28;20042;-48
2021/05/27 05:27:58;;;;;;;3.55;1.25;;;;;;;10.63;62.82;101239.03;5082021;28;20058;-49
2021/05/27 05:30:27;;;;;;;4.00;0.77;;;;;;;10.67;62.92;101234.44;5087374;28;20123;-46
2021/05/27 05:32:55;;;;;;;1.27;1.17;;;;;;;10.77;62.55;101225.78;5092087;28;20062;-48
2021/05/27 05:35:22;;;;;;;1.13;1.00;;;;;;;10.79;62.43;101236.50;5088539;28;20162;-47
2021/05/27 05:37:49;;;;;;;1.15;0.70;;;;;;;10.79;62.49;101236.50;5079345;28;20462;-49
2021/05/27 05:40:20;;;;;;;1.10;0.85;;;;;;;10.79;62.76;101242.03;5087833;28;20075;-47
2021/05/27 05:42:47;;;;;;;1.17;0.75;;;;;;;10.81;62.87;101239.75;5084764;28;20044;-47
2021/05/27 05:45:16;;;;;;;4.38;1.30;;;;;;;10.82;62.98;101252.47;5075622;28;20049;-46
2021/05/27 05:47:47;;;;;;;2.88;1.08;;;;;;;10.85;63.06;101240.72;5076581;28;20151;-46
2021/05/27 05:50:44;;;;;;;0.88;0.88;;;;;;;10.91;62.78;101254.03;5091260;28;20119;-46
2021/05/27 05:53:06;;;;;;;3.75;1.05;;;;;;;10.90;63.15;101248.81;5085237;28;20051;-47
2021/05/27 05:55:33;;;;;;;3.20;1.10;;;;;;;10.91;63.46;101261.50;5083825;28;20055;-47
2021/05/27 05:58:02;;;;;;;2.33;1.20;;;;;;;10.94;63.34;101249.75;5086514;28;20294;-46
2021/05/27 06:00:29;;;;;;;3.78;1.20;;;;;;;11.00;63.06;101249.25;5054516;28;20048;-47
2021/05/27 06:02:56;;;;;;;2.60;1.30;;;;;;;11.04;63.01;101248.59;5076166;28;20040;-46
2021/05/27 06:05:23;;;;;;;3.20;1.17;;;;;;;11.08;63.20;101249.50;5082310;28;20051;-48
2021/05/27 06:07:50;;;;;;;2.22;1.63;;;;;;;11.13;62.89;101252.91;5075121;28;20131;-47
2021/05/27 06:10:17;;;;;;;2.45;1.20;;;;;;;11.17;62.87;101248.34;5079820;28;20036;-47
2021/05/27 06:12:43;;;;;;;1.40;1.20;;;;;;;11.25;62.86;101249.41;5087039;28;20144;-46
2021/05/27 06:15:11;;;;;;;4.63;2.17;;;;;;;11.31;63.07;101248.84;5090207;28;20036;-51
2021/05/27 06:17:38;;;;;;;1.95;1.60;;;;;;;11.37;63.48;101249.47;5091460;28;20071;-48
2021/05/27 06:20:06;;;;;;;4.03;1.88;;;;;;;11.41;63.87;101242.91;5084997;28;20058;-47
2021/05/27 06:22:32;;;;;;;5.50;2.78;;;;;;;11.48;64.24;101243.19;5078004;28;20091;-49
2021/05/27 06:25:00;;;;;;;6.65;2.80;;;;;;;11.55;64.60;101243.44;5089984;28;20497;-48
2021/05/27 06:27:27;;;;;;;3.53;2.45;;;;;;;11.60;65.24;101246.00;5090711;28;20072;-47
2021/05/27 06:29:54;;;;;;;2.63;2.42;;;;;;;11.66;65.82;101249.38;5088533;28;20072;-50
2021/05/27 06:32:21;;;;;;;6.47;2.63;;;;;;;11.68;66.73;101244.31;5087488;28;20050;-48
2021/05/27 06:34:48;;;;;;;5.03;2.88;;;;;;;11.74;67.31;101247.72;5089288;28;20104;-47
2021/05/27 06:37:15;;;;;;;8.20;3.45;;;;;;;11.81;67.58;101248.78;5087209;28;20464;-47
2021/05/27 06:39:42;;;;;;;2.38;1.92;;;;;;;11.87;67.82;101243.81;5088561;28;20043;-50
2021/05/27 06:42:08;;;;;;;5.63;2.20;;;;;;;11.93;67.42;101248.84;5080531;28;20131;-48
2021/05/27 06:44:36;;;;;;;6.20;1.67;;;;;;;12.00;67.38;101251.84;5086939;28;20123;-49
2021/05/27 06:47:03;;;;;;;5.95;1.80;;;;;;;12.06;67.21;101258.00;5096848;28;20058;-46
2021/05/27 06:49:29;;;;;;;6.22;1.83;;;;;;;12.08;67.42;101261.22;5085495;28;20086;-48
2021/05/27 06:51:57;;;;;;;4.95;1.98;;;;;;;12.15;67.66;101259.50;5072583;28;20393;-46
2021/05/27 06:54:24;;;;;;;7.40;2.53;;;;;;;12.25;67.62;101266.63;5090973;28;20501;-47
2021/05/27 06:56:52;;;;;;;5.10;2.33;;;;;;;12.33;67.93;101268.47;5081643;28;20128;-46
2021/05/27 06:59:19;;;;;;;5.43;3.13;;;;;;;12.39;68.16;101263.53;5089219;28;20464;-46
2021/05/27 07:01:46;;;;;;;5.95;2.30;;;;;;;12.45;68.27;101264.91;5085205;28;20049;-49
2021/05/27 07:04:13;;;;;;;7.13;3.30;;;;;;;12.57;68.65;101265.75;5094143;28;20138;-51
2021/05/27 07:06:41;;;;;;;3.83;2.55;;;;;;;12.67;68.77;101268.06;5083706;28;20055;-50
2021/05/27 07:09:08;;;;;;;3.50;2.40;;;;;;;12.80;68.91;101274.41;5081166;28;20040;-54
2021/05/27 07:11:35;;;;;;;4.80;2.10;;;;;;;12.95;69.09;101272.91;5080941;28;20048;-49
2021/05/27 07:14:05;;;;;;;7.25;2.50;;;;;;;13.07;69.57;101273.75;5089020;28;20398;-49
2021/05/27 07:16:33;;;;;;;4.53;2.60;;;;;;;13.18;69.33;101279.66;5093099;28;20040;-47
2021/05/27 07:19:00;;;;;;;8.85;2.60;;;;;;;13.28;69.92;101279.16;5091343;28;20110;-49
2021/05/27 07:21:27;;;;;;;6.30;2.60;;;;;;;13.38;69.83;101275.88;5081843;28;20040;-48
2021/05/27 07:23:55;;;;;;;5.97;2.50;;;;;;;13.50;69.88;101287.00;5094354;28;20113;-50
2021/05/27 07:26:22;;;;;;;4.13;2.33;;;;;;;13.62;69.87;101289.75;5080837;28;20093;-48
2021/05/27 07:28:49;;;;;;;4.93;2.15;;;;;;;13.69;69.80;101284.38;5090351;28;20123;-48
2021/05/27 07:31:16;;;;;;;4.60;2.13;;;;;;;13.84;69.84;101289.22;5088044;28;20051;-47
2021/05/27 07:33:43;;;;;;;3.35;2.20;;;;;;;13.99;69.91;101288.44;5078180;28;20137;-48
2021/05/27 07:36:10;;;;;;;3.38;1.95;;;;;;;14.16;70.18;101278.16;5095186;28;20675;-53
2021/05/27 07:38:37;;;;;;;4.38;2.40;;;;;;;14.29;70.40;101276.91;5075267;28;20043;-49
2021/05/27 07:41:06;;;;;;;6.30;2.22;;;;;;;14.42;69.81;101281.28;5091131;28;20044;-49
2021/05/27 07:43:33;;;;;;;4.82;2.00;;;;;;;14.65;69.73;101279.47;5075262;28;20136;-50
2021/05/27 07:45:59;;;;;;;4.10;2.20;;;;;;;14.98;69.07;101273.53;5092805;28;20063;-49
2021/05/27 07:48:26;;;;;;;3.38;1.75;;;;;;;15.27;68.48;101273.03;5086395;28;20037;-51
2021/05/27 07:50:53;;;;;;;3.70;1.58;;;;;;;15.63;67.68;101275.44;5077619;28;20072;-47
2021/05/27 07:53:20;;;;;;;3.40;1.63;;;;;;;16.05;66.20;101264.31;5085319;28;20730;-49
2021/05/27 07:55:47;;;;;;;2.83;1.42;;;;;;;16.55;64.00;101268.88;5091400;28;20392;-53
2021/05/27 07:58:14;;;;;;;6.05;1.95;;;;;;;17.13;62.22;101269.41;5082686;28;20044;-48
2021/05/27 08:00:44;;;;;;;2.75;1.40;;;;;;;17.73;60.07;101277.88;5085176;28;20044;-50
2021/05/27 08:03:12;;;;;;;3.03;1.42;;;;;;;18.17;58.30;101284.41;5087544;28;20477;-52
2021/05/27 08:05:39;;;;;;;1.83;1.30;;;;;;;18.68;57.94;101279.78;5077140;28;20125;-47
2021/05/27 08:08:06;;;;;;;3.28;1.33;;;;;;;19.06;56.29;101274.88;5079236;28;20052;-46
2021/05/27 08:10:37;;;;;;;;;;;;;;;19.40;55.27;101285.56;5091987;28;20040;-49
2021/05/27 08:13:04;;;;;;;1.85;1.23;;;;;;;19.90;55.75;101283.78;5089857;28;19935;-46
2021/05/27 08:15:31;;;;;;;1.63;1.27;;;;;;;20.30;54.00;101281.94;5085943;28;20076;-48
2021/05/27 08:17:58;;;;;;;2.47;1.17;;;;;;;20.66;52.82;101289.22;5083445;28;20745;-48
2021/05/27 08:20:25;;;;;;;2.08;1.23;;;;;;;21.00;51.74;101284.78;5077715;28;20123;-48
2021/05/27 08:22:52;;;;;;;1.63;1.50;;;;;;;21.31;50.14;101285.22;5079917;28;20048;-46
2021/05/27 08:25:19;;;;;;;2.03;1.00;;;;;;;21.43;49.14;101287.59;5079951;28;20117;-47
2021/05/27 08:27:49;;;;;;;3.92;1.30;;;;;;;21.66;49.29;101285.91;5065609;28;20118;-47
2021/05/27 08:30:17;;;;;;;5.63;1.25;;;;;;;21.86;47.93;101294.72;5095093;28;20038;-49
2021/05/27 08:32:46;;;;;;;1.98;1.02;;;;;;;22.04;47.21;101289.81;5088553;28;20417;-48
2021/05/27 08:35:13;;;;;;;4.03;1.27;;;;;;;22.11;46.47;101289.78;5088555;28;20051;-46
2021/05/27 08:37:40;;;;;;;1.58;1.20;;;;;;;22.27;45.84;101280.81;5096034;28;20071;-48
2021/05/27 08:40:08;;;;;;;3.78;1.50;;;;;;;22.44;46.14;101277.09;5099175;28;20050;-46
2021/05/27 08:42:36;;;;;;;3.83;1.33;;;;;;;22.73;45.36;101280.53;5092748;28;20056;-47
2021/05/27 08:45:07;;;;;;;3.90;1.25;;;;;;;22.78;44.62;101277.28;5096737;28;20040;-48
2021/05/27 08:47:35;;;;;;;1.92;1.63;;;;;;;22.94;44.42;101275.53;5083947;28;20373;-46
2021/05/27 08:50:04;;;;;;;1.73;1.58;;;;;;;23.07;44.16;101284.28;5078427;28;20517;-48
2021/05/27 08:52:31;;;;;;;1.75;1.02;;;;;;;23.18;43.91;101284.97;5085273;28;20131;-48
2021/05/27 08:54:58;;;;;;;3.85;1.30;;;;;;;23.22;43.63;101280.09;5089663;28;20166;-49
2021/05/27 08:57:25;;;;;;;2.78;1.63;;;;;;;23.25;42.88;101287.72;5090039;28;20451;-50
2021/05/27 08:59:52;;;;;;;5.57;2.08;;;;;;;23.32;42.71;101284.06;5083733;28;20090;-47
2021/05/27 09:02:19;;;;;;;2.50;1.20;;;;;;;23.25;41.82;101282.09;5081965;28;20135;-51
2021/05/27 09:04:46;;;;;;;4.30;1.20;;;;;;;23.31;41.60;101286.06;5085583;28;20079;-46
2021/05/27 09:07:13;;;;;;;2.78;1.33;;;;;;;23.36;41.11;101273.50;5087467;28;20138;-45
2021/05/27 09:09:53;;;;;;;3.17;2.00;;;;;;;23.22;39.43;101282.13;5085598;28;20072;-46
2021/05/27 09:12:28;;;;;;;5.85;1.50;;;;;;;23.09;40.03;101270.53;5084139;28;20040;-45
2021/05/27 09:14:56;;;;;;;1.95;1.20;;;;;;;23.02;40.06;101277.06;5093174;28;20142;-46
2021/05/27 09:17:24;;;;;;;6.00;1.05;;;;;;;23.23;39.78;101286.56;5087682;28;20051;-48
2021/05/27 09:20:15;;;;;;;1.83;0.93;;;;;;;23.09;38.62;101276.19;5097232;28;20040;-50
2021/05/27 09:22:43;;;;;;;1.63;0.80;;;;;;;23.11;39.66;101279.41;5084151;28;20076;-48
2021/05/27 09:25:30;;;;;;;3.00;0.80;;;;;;;23.21;38.54;101281.31;5086512;28;20044;-46
2021/05/27 09:27:57;;;;;;;2.50;0.90;;;;;;;23.42;39.42;101285.97;5071791;28;20053;-46
2021/05/27 09:30:24;;;;;;;5.20;1.00;;;;;;;23.41;38.98;101271.06;5088014;28;20130;-49
2021/05/27 09:33:07;;;;;;;2.40;1.05;;;;;;;23.56;38.50;101283.78;5073349;28;20082;-47
2021/05/27 09:35:35;;;;;;;4.32;0.65;;;;;;;23.53;38.09;101275.38;5088849;28;20051;-48
2021/05/27 09:38:03;;;;;;;2.05;0.70;;;;;;;23.52;37.75;101274.56;5089021;28;20059;-46
2021/05/27 09:40:46;;;;;;;2.58;0.50;;;;;;;23.47;36.80;101277.84;5088663;28;20046;-47
2021/05/27 09:43:23;;;;;;;2.60;0.85;;;;;;;23.39;36.83;101281.97;5070085;28;20105;-45
2021/05/27 09:46:07;;;;;;;3.78;0.70;;;;;;;23.28;37.55;101278.41;5085858;28;20097;-49
2021/05/27 09:48:36;;;;;;;2.45;1.00;;;;;;;23.21;37.78;101275.69;5072427;28;20805;-47
2021/05/27 09:51:07;;;;;;;1.08;0.82;;;;;;;23.37;37.27;101269.50;5084511;28;20044;-52
2021/05/27 09:53:35;;;;;;;2.50;0.80;;;;;;;23.44;37.75;101264.56;5079038;28;20572;-47
2021/05/27 09:56:05;;;;;;;2.92;1.10;;;;;;;23.41;38.00;101273.88;5084469;28;20130;-49
2021/05/27 09:58:32;;;;;;;3.20;0.90;;;;;;;23.36;37.72;101267.84;5062911;28;20097;-47
2021/05/27 10:01:08;;;;;;;3.25;1.00;;;;;;;23.39;37.29;101272.69;5082495;28;20048;-47
2021/05/27 10:03:41;;;;;;;3.15;0.98;;;;;;;23.18;37.29;101273.69;5084932;28;20055;-47
2021/05/27 10:06:11;;;;;;;3.92;1.25;;;;;;;22.88;37.79;101270.72;5064276;28;20052;-46
2021/05/27 10:08:50;;;;;;;1.90;1.00;;;;;;;22.80;37.00;101275.63;5076935;28;20050;-45
2021/05/27 10:11:18;;;;;;;2.65;0.75;;;;;;;22.53;38.10;101277.41;5088953;28;20539;-48
2021/05/27 10:13:47;;;;;;;3.13;1.05;;;;;;;22.29;38.40;101279.19;5079454;28;20060;-45
2021/05/27 10:16:17;;;;;;;3.65;1.27;;;;;;;22.11;38.68;101281.31;5085788;28;20494;-48
2021/05/27 10:18:44;;;;;;;3.63;0.98;;;;;;;21.92;38.93;101275.38;5088787;28;20171;-47
2021/05/27 10:21:12;;;;;;;2.88;0.82;;;;;;;21.80;38.96;101268.13;5079108;28;20049;-45
2021/05/27 10:23:40;;;;;;;3.15;0.77;;;;;;;21.80;39.23;101274.59;5080459;28;20156;-46
2021/05/27 10:26:08;;;;;;;3.45;1.02;;;;;;;21.73;39.74;101282.28;5082066;28;20077;-51
2021/05/27 10:28:36;;;;;;;4.70;1.45;;;;;;;21.72;40.40;101278.66;5075826;28;20053;-46
2021/05/27 10:31:04;;;;;;;1.80;0.75;;;;;;;21.62;40.64;101271.03;5086265;28;20052;-48
2021/05/27 10:33:41;;;;;;;5.40;1.42;;;;;;;21.45;41.17;101277.50;5091883;28;20418;-50
2021/05/27 10:36:10;;;;;;;1.85;0.90;;;;;;;21.28;41.37;101274.75;5090563;28;20127;-49
2021/05/27 10:38:37;;;;;;;3.33;1.05;;;;;;;21.07;41.81;101276.41;5078914;28;20052;-51
2021/05/27 10:41:24;;;;;;;3.80;0.98;;;;;;;21.02;42.11;101282.38;5091736;28;20123;-46
2021/05/27 10:44:00;;;;;;;1.30;0.55;;;;;;;20.84;42.25;101278.78;5047923;28;20059;-46
2021/05/27 10:46:31;;;;;;;2.53;0.82;;;;;;;20.39;42.93;101276.72;5083477;28;20044;-48
2021/05/27 10:48:58;;;;;;;3.15;1.42;;;;;;;20.17;42.95;101266.59;5089213;28;20115;-46
2021/05/27 10:51:33;;;;;;;2.63;0.60;;;;;;;19.97;44.24;101269.75;5087276;28;20085;-45
2021/05/27 10:54:08;;;;;;;5.82;1.00;;;;;;;19.98;44.56;101271.38;5082839;28;20489;-45
2021/05/27 10:56:47;;;;;;;5.28;1.23;;;;;;;19.87;44.95;101281.78;5094947;28;20062;-47
2021/05/27 10:59:16;;;;;;;1.45;0.70;;;;;;;19.59;44.57;101276.00;5083345;28;20378;-49
2021/05/27 11:01:43;;;;;;;2.95;1.05;;;;;;;19.37;44.94;101279.88;5092279;28;20075;-44
2021/05/27 11:04:23;;;;;;;6.85;1.15;;;;;;;19.18;46.77;101277.34;5082051;28;20072;-48
2021/05/27 11:07:09;;;;;;;4.95;1.38;;;;;;;19.09;47.40;101285.31;5074735;28;20044;-48
2021/05/27 11:09:38;;;;;;;5.38;0.98;;;;;;;19.15;46.83;101289.34;5088561;28;20051;-45
2021/05/27 11:12:07;;;;;;;4.32;0.77;;;;;;;19.21;46.90;101283.00;5081351;28;20044;-53
2021/05/27 11:14:46;;;;;;;2.15;0.82;;;;;;;19.18;46.57;101283.75;5072344;28;20059;-46
2021/05/27 11:17:19;;;;;;;2.90;1.35;;;;;;;19.14;46.66;101276.53;5090752;28;20051;-49
2021/05/27 11:22:33;;;;;;;2.80;0.77;;;;;;;18.87;47.09;101277.91;5070569;28;20044;-47
2021/05/27 11:25:12;;;;;;;1.53;1.43;;;;;;;18.78;47.02;101267.81;5082024;28;20094;-48
2021/05/27 11:27:39;;;;;;;4.32;1.05;;;;;;;18.85;47.19;101284.72;5075740;28;20068;-46
2021/05/27 11:30:39;;;;;;;3.08;0.80;;;;;;;18.93;46.98;101273.56;5079795;28;20065;-48
2021/05/27 11:33:29;;;;;;;4.10;1.00;;;;;;;18.97;46.86;101268.75;5076199;28;20796;-50
2021/05/27 11:36:00;;;;;;;2.53;0.95;;;;;;;19.10;46.50;101272.88;5082291;28;20048;-46
2021/05/27 11:38:35;;;;;;;3.45;0.82;;;;;;;19.17;46.58;101278.53;5082660;28;20043;-47
2021/05/27 11:41:07;;;;;;;3.40;1.95;;;;;;;19.20;46.49;101272.94;5078701;28;20071;-48
2021/05/27 11:43:36;;;;;;;3.95;0.73;;;;;;;19.29;46.49;101269.81;5067623;28;20127;-46